sensor_id;sensor_type;location;lat;lon;timestamp;temperature;humidity
16513;DHT22;8369;48.030;11.598;2023-04-24T00:01:02;11.50;99.90
16513;DHT22;8369;48.030;11.598;2023-04-24T00:03:29;11.50;99.90
16513;DHT22;8369;48.030;11.598;2023-04-24T00:05:55;11.40;99.90
16513;DHT22;8369;48.030;11.598;2023-04-24T00:08:22;11.40;99.90
16513;DHT22;8369;48.030;11.598;2023-04-24T00:10:49;11.40;99.90
16513;DHT22;8369;48.030;11.598;2023-04-24T00:13:15;11.40;99.90
16513;DHT22;8369;48.030;11.598;2023-04-24T00:15:41;11.30;99.90
16513;DHT22;8369;48.030;11.598;2023-04-24T00:18:08;11.30;99.90
16513;DHT22;8369;48.030;11.598;2023-04-24T00:24:16;11.30;99.90
16513;DHT22;8369;48.030;11.598;2023-04-24T00:26:42;11.30;99.90
16513;DHT22;8369;48.030;11.598;2023-04-24T00:29:08;11.20;99.90
16513;DHT22;8369;48.030;11.598;2023-04-24T00:31:35;11.20;99.90
16513;DHT22;8369;48.030;11.598;2023-04-24T00:34:02;11.20;99.90
16513;DHT22;8369;48.030;11.598;2023-04-24T00:36:28;11.20;99.90
16513;DHT22;8369;48.030;11.598;2023-04-24T00:38:55;11.20;99.90
16513;DHT22;8369;48.030;11.598;2023-04-24T00:41:21;11.20;99.90
16513;DHT22;8369;48.030;11.598;2023-04-24T00:43:48;11.20;99.90
16513;DHT22;8369;48.030;11.598;2023-04-24T00:46:14;11.20;99.90
16513;DHT22;8369;48.030;11.598;2023-04-24T00:48:41;11.20;99.90
16513;DHT22;8369;48.030;11.598;2023-04-24T00:51:08;11.10;99.90
16513;DHT22;8369;48.030;11.598;2023-04-24T00:53:34;11.10;99.90
16513;DHT22;8369;48.030;11.598;2023-04-24T00:56:02;11.10;99.90
16513;DHT22;8369;48.030;11.598;2023-04-24T00:58:29;11.10;99.90
16513;DHT22;8369;48.030;11.598;2023-04-24T01:00:57;11.10;99.90
16513;DHT22;8369;48.030;11.598;2023-04-24T01:03:27;11.10;99.90
16513;DHT22;8369;48.030;11.598;2023-04-24T01:05:55;11.10;99.90
16513;DHT22;8369;48.030;11.598;2023-04-24T01:08:24;11.10;99.90
16513;DHT22;8369;48.030;11.598;2023-04-24T01:10:53;11.10;99.90
16513;DHT22;8369;48.030;11.598;2023-04-24T01:13:20;11.00;99.90
16513;DHT22;8369;48.030;11.598;2023-04-24T01:15:47;11.00;99.90
16513;DHT22;8369;48.030;11.598;2023-04-24T01:18:15;10.90;99.90
16513;DHT22;8369;48.030;11.598;2023-04-24T01:20:42;11.00;99.90
16513;DHT22;8369;48.030;11.598;2023-04-24T01:23:10;10.90;99.90
16513;DHT22;8369;48.030;11.598;2023-04-24T01:25:37;10.90;99.90
16513;DHT22;8369;48.030;11.598;2023-04-24T01:28:05;10.90;99.90
16513;DHT22;8369;48.030;11.598;2023-04-24T01:30:31;10.90;99.90
16513;DHT22;8369;48.030;11.598;2023-04-24T01:32:59;10.90;99.90
16513;DHT22;8369;48.030;11.598;2023-04-24T01:35:26;10.90;99.90
16513;DHT22;8369;48.030;11.598;2023-04-24T01:37:53;11.00;99.90
16513;DHT22;8369;48.030;11.598;2023-04-24T01:40:21;10.90;99.90
16513;DHT22;8369;48.030;11.598;2023-04-24T01:42:48;10.90;99.90
16513;DHT22;8369;48.030;11.598;2023-04-24T01:45:15;10.90;99.90
16513;DHT22;8369;48.030;11.598;2023-04-24T01:47:42;10.90;99.90
16513;DHT22;8369;48.030;11.598;2023-04-24T01:50:08;10.90;99.90
16513;DHT22;8369;48.030;11.598;2023-04-24T01:52:35;10.90;99.90
16513;DHT22;8369;48.030;11.598;2023-04-24T01:55:02;10.90;99.90
16513;DHT22;8369;48.030;11.598;2023-04-24T01:57:31;10.90;99.90
16513;DHT22;8369;48.030;11.598;2023-04-24T01:59:58;10.90;99.90
16513;DHT22;8369;48.030;11.598;2023-04-24T02:02:24;10.90;99.90
16513;DHT22;8369;48.030;11.598;2023-04-24T02:04:53;10.90;99.90
16513;DHT22;8369;48.030;11.598;2023-04-24T02:07:21;10.80;99.90
16513;DHT22;8369;48.030;11.598;2023-04-24T02:09:47;10.80;99.90
16513;DHT22;8369;48.030;11.598;2023-04-24T02:12:15;10.80;99.90
16513;DHT22;8369;48.030;11.598;2023-04-24T02:14:43;10.80;99.90
16513;DHT22;8369;48.030;11.598;2023-04-24T02:17:10;10.80;99.90
16513;DHT22;8369;48.030;11.598;2023-04-24T02:19:38;10.80;99.90
16513;DHT22;8369;48.030;11.598;2023-04-24T02:22:05;10.80;99.90
16513;DHT22;8369;48.030;11.598;2023-04-24T02:24:32;10.80;99.90
16513;DHT22;8369;48.030;11.598;2023-04-24T02:26:59;10.80;99.90
16513;DHT22;8369;48.030;11.598;2023-04-24T02:29:26;10.70;99.90
16513;DHT22;8369;48.030;11.598;2023-04-24T02:31:53;10.80;99.90
16513;DHT22;8369;48.030;11.598;2023-04-24T02:34:20;10.80;99.90
16513;DHT22;8369;48.030;11.598;2023-04-24T02:36:46;10.80;99.90
16513;DHT22;8369;48.030;11.598;2023-04-24T02:39:13;10.70;99.90
16513;DHT22;8369;48.030;11.598;2023-04-24T02:41:40;10.70;99.90
16513;DHT22;8369;48.030;11.598;2023-04-24T02:44:06;10.70;99.90
16513;DHT22;8369;48.030;11.598;2023-04-24T02:46:32;10.70;99.90
16513;DHT22;8369;48.030;11.598;2023-04-24T02:48:59;10.70;99.90
16513;DHT22;8369;48.030;11.598;2023-04-24T02:51:26;10.60;99.90
16513;DHT22;8369;48.030;11.598;2023-04-24T02:53:53;10.60;99.90
16513;DHT22;8369;48.030;11.598;2023-04-24T02:56:20;10.60;99.90
16513;DHT22;8369;48.030;11.598;2023-04-24T02:58:47;10.60;99.90
16513;DHT22;8369;48.030;11.598;2023-04-24T03:01:14;10.60;99.90
16513;DHT22;8369;48.030;11.598;2023-04-24T03:03:42;10.60;99.90
16513;DHT22;8369;48.030;11.598;2023-04-24T03:06:08;10.60;99.90
16513;DHT22;8369;48.030;11.598;2023-04-24T03:08:35;10.60;99.90
16513;DHT22;8369;48.030;11.598;2023-04-24T03:11:01;10.60;99.90
16513;DHT22;8369;48.030;11.598;2023-04-24T03:13:28;10.60;99.90
16513;DHT22;8369;48.030;11.598;2023-04-24T03:15:55;10.50;99.90
16513;DHT22;8369;48.030;11.598;2023-04-24T03:18:21;10.50;99.90
16513;DHT22;8369;48.030;11.598;2023-04-24T03:20:48;10.50;99.90
16513;DHT22;8369;48.030;11.598;2023-04-24T03:23:15;10.50;99.90
16513;DHT22;8369;48.030;11.598;2023-04-24T03:25:42;10.50;99.90
16513;DHT22;8369;48.030;11.598;2023-04-24T03:28:11;10.50;99.90
16513;DHT22;8369;48.030;11.598;2023-04-24T03:30:38;10.50;99.90
16513;DHT22;8369;48.030;11.598;2023-04-24T03:33:05;10.50;99.90
16513;DHT22;8369;48.030;11.598;2023-04-24T03:35:32;10.50;99.90
16513;DHT22;8369;48.030;11.598;2023-04-24T03:38:00;10.40;99.90
16513;DHT22;8369;48.030;11.598;2023-04-24T03:40:28;10.40;99.90
16513;DHT22;8369;48.030;11.598;2023-04-24T03:42:56;10.50;99.90
16513;DHT22;8369;48.030;11.598;2023-04-24T03:45:22;10.40;99.90
16513;DHT22;8369;48.030;11.598;2023-04-24T03:47:49;10.40;99.90
16513;DHT22;8369;48.030;11.598;2023-04-24T03:50:17;10.40;99.90
16513;DHT22;8369;48.030;11.598;2023-04-24T03:52:43;10.40;99.90
16513;DHT22;8369;48.030;11.598;2023-04-24T03:55:10;10.40;99.90
16513;DHT22;8369;48.030;11.598;2023-04-24T03:57:40;10.40;99.90
16513;DHT22;8369;48.030;11.598;2023-04-24T04:00:07;10.40;99.90
16513;DHT22;8369;48.030;11.598;2023-04-24T04:02:35;10.40;99.90
16513;DHT22;8369;48.030;11.598;2023-04-24T04:05:02;10.40;99.90
16513;DHT22;8369;48.030;11.598;2023-04-24T04:07:29;10.40;99.90
16513;DHT22;8369;48.030;11.598;2023-04-24T04:09:56;10.30;99.90
16513;DHT22;8369;48.030;11.598;2023-04-24T04:12:24;10.30;99.90
16513;DHT22;8369;48.030;11.598;2023-04-24T04:14:51;10.30;99.90
16513;DHT22;8369;48.030;11.598;2023-04-24T04:17:18;10.30;99.90
16513;DHT22;8369;48.030;11.598;2023-04-24T04:19:46;10.30;99.90
16513;DHT22;8369;48.030;11.598;2023-04-24T04:22:12;10.30;99.90
16513;DHT22;8369;48.030;11.598;2023-04-24T04:24:39;10.30;99.90
16513;DHT22;8369;48.030;11.598;2023-04-24T04:27:06;10.20;99.90
16513;DHT22;8369;48.030;11.598;2023-04-24T04:29:34;10.20;99.90
16513;DHT22;8369;48.030;11.598;2023-04-24T04:32:02;10.20;99.90
16513;DHT22;8369;48.030;11.598;2023-04-24T04:34:28;10.20;99.90
16513;DHT22;8369;48.030;11.598;2023-04-24T04:36:57;10.20;99.90
16513;DHT22;8369;48.030;11.598;2023-04-24T04:39:27;10.20;99.90
16513;DHT22;8369;48.030;11.598;2023-04-24T04:41:56;10.20;99.90
16513;DHT22;8369;48.030;11.598;2023-04-24T04:44:22;10.20;99.90
16513;DHT22;8369;48.030;11.598;2023-04-24T04:46:49;10.20;99.90
16513;DHT22;8369;48.030;11.598;2023-04-24T04:49:19;10.20;99.90
16513;DHT22;8369;48.030;11.598;2023-04-24T04:51:47;10.20;99.90
16513;DHT22;8369;48.030;11.598;2023-04-24T04:54:17;10.20;99.90
16513;DHT22;8369;48.030;11.598;2023-04-24T04:56:49;10.20;99.90
16513;DHT22;8369;48.030;11.598;2023-04-24T04:59:17;10.20;99.90
16513;DHT22;8369;48.030;11.598;2023-04-24T05:01:43;10.20;99.90
16513;DHT22;8369;48.030;11.598;2023-04-24T05:04:13;10.20;99.90
16513;DHT22;8369;48.030;11.598;2023-04-24T05:06:40;10.20;99.90
16513;DHT22;8369;48.030;11.598;2023-04-24T05:09:06;10.20;99.90
16513;DHT22;8369;48.030;11.598;2023-04-24T05:14:53;10.30;99.90
16513;DHT22;8369;48.030;11.598;2023-04-24T05:17:22;10.30;99.90
16513;DHT22;8369;48.030;11.598;2023-04-24T05:19:53;10.30;99.90
16513;DHT22;8369;48.030;11.598;2023-04-24T05:22:19;10.30;99.90
16513;DHT22;8369;48.030;11.598;2023-04-24T05:24:47;10.30;99.90
16513;DHT22;8369;48.030;11.598;2023-04-24T05:27:16;10.40;99.90
16513;DHT22;8369;48.030;11.598;2023-04-24T05:29:44;10.40;99.90
16513;DHT22;8369;48.030;11.598;2023-04-24T05:32:10;10.40;99.90
16513;DHT22;8369;48.030;11.598;2023-04-24T05:35:11;10.40;99.90
16513;DHT22;8369;48.030;11.598;2023-04-24T05:37:38;10.40;99.90
16513;DHT22;8369;48.030;11.598;2023-04-24T05:40:05;10.50;99.90
16513;DHT22;8369;48.030;11.598;2023-04-24T05:42:31;10.50;99.90
16513;DHT22;8369;48.030;11.598;2023-04-24T05:44:58;10.50;99.90
16513;DHT22;8369;48.030;11.598;2023-04-24T05:47:25;10.50;99.90
16513;DHT22;8369;48.030;11.598;2023-04-24T05:49:52;10.50;99.90
16513;DHT22;8369;48.030;11.598;2023-04-24T05:52:19;10.50;99.90
16513;DHT22;8369;48.030;11.598;2023-04-24T05:54:46;10.50;99.90
16513;DHT22;8369;48.030;11.598;2023-04-24T05:57:12;10.50;99.90
16513;DHT22;8369;48.030;11.598;2023-04-24T05:59:40;10.50;99.90
16513;DHT22;8369;48.030;11.598;2023-04-24T06:02:07;10.60;99.90
16513;DHT22;8369;48.030;11.598;2023-04-24T06:04:34;10.60;99.90
16513;DHT22;8369;48.030;11.598;2023-04-24T06:07:01;10.60;99.90
16513;DHT22;8369;48.030;11.598;2023-04-24T06:09:29;10.70;99.90
16513;DHT22;8369;48.030;11.598;2023-04-24T06:11:57;10.70;99.90
16513;DHT22;8369;48.030;11.598;2023-04-24T06:14:24;10.70;99.90
16513;DHT22;8369;48.030;11.598;2023-04-24T06:16:56;10.80;99.90
16513;DHT22;8369;48.030;11.598;2023-04-24T06:19:28;10.90;99.90
16513;DHT22;8369;48.030;11.598;2023-04-24T06:21:55;10.90;99.90
16513;DHT22;8369;48.030;11.598;2023-04-24T06:24:21;10.90;99.90
16513;DHT22;8369;48.030;11.598;2023-04-24T06:26:48;11.00;99.90
16513;DHT22;8369;48.030;11.598;2023-04-24T06:29:16;11.00;99.90
16513;DHT22;8369;48.030;11.598;2023-04-24T06:31:44;11.00;99.90
16513;DHT22;8369;48.030;11.598;2023-04-24T06:34:10;11.00;99.90
16513;DHT22;8369;48.030;11.598;2023-04-24T06:36:38;11.00;99.90
16513;DHT22;8369;48.030;11.598;2023-04-24T06:39:04;11.00;99.90
16513;DHT22;8369;48.030;11.598;2023-04-24T06:41:31;11.00;99.90
16513;DHT22;8369;48.030;11.598;2023-04-24T06:43:56;11.10;99.90
16513;DHT22;8369;48.030;11.598;2023-04-24T06:46:23;11.10;99.90
16513;DHT22;8369;48.030;11.598;2023-04-24T06:48:52;11.10;99.90
16513;DHT22;8369;48.030;11.598;2023-04-24T06:51:22;11.20;99.90
16513;DHT22;8369;48.030;11.598;2023-04-24T06:53:48;11.20;99.90
16513;DHT22;8369;48.030;11.598;2023-04-24T06:56:15;11.20;99.90
16513;DHT22;8369;48.030;11.598;2023-04-24T06:58:41;11.20;99.90
16513;DHT22;8369;48.030;11.598;2023-04-24T07:01:07;11.30;99.90
16513;DHT22;8369;48.030;11.598;2023-04-24T07:03:33;11.30;99.90
16513;DHT22;8369;48.030;11.598;2023-04-24T07:05:59;11.40;99.90
16513;DHT22;8369;48.030;11.598;2023-04-24T07:08:26;11.50;99.90
16513;DHT22;8369;48.030;11.598;2023-04-24T07:10:52;11.60;99.90
16513;DHT22;8369;48.030;11.598;2023-04-24T07:13:18;11.60;99.90
16513;DHT22;8369;48.030;11.598;2023-04-24T07:15:44;11.70;99.90
16513;DHT22;8369;48.030;11.598;2023-04-24T07:18:12;11.70;99.90
16513;DHT22;8369;48.030;11.598;2023-04-24T07:20:39;11.80;99.90
16513;DHT22;8369;48.030;11.598;2023-04-24T07:23:05;11.80;99.90
16513;DHT22;8369;48.030;11.598;2023-04-24T07:25:31;11.90;99.90
16513;DHT22;8369;48.030;11.598;2023-04-24T07:28:00;11.90;99.90
16513;DHT22;8369;48.030;11.598;2023-04-24T07:30:26;12.00;99.90
16513;DHT22;8369;48.030;11.598;2023-04-24T07:32:54;12.20;99.90
16513;DHT22;8369;48.030;11.598;2023-04-24T07:35:21;12.20;99.90
16513;DHT22;8369;48.030;11.598;2023-04-24T07:37:47;12.20;99.90
16513;DHT22;8369;48.030;11.598;2023-04-24T07:40:17;12.20;99.90
16513;DHT22;8369;48.030;11.598;2023-04-24T07:42:43;12.20;99.90
16513;DHT22;8369;48.030;11.598;2023-04-24T07:45:09;12.20;99.90
16513;DHT22;8369;48.030;11.598;2023-04-24T07:47:36;12.10;99.90
16513;DHT22;8369;48.030;11.598;2023-04-24T07:50:05;12.10;99.90
16513;DHT22;8369;48.030;11.598;2023-04-24T07:52:32;12.10;99.90
16513;DHT22;8369;48.030;11.598;2023-04-24T07:54:59;12.10;99.90
16513;DHT22;8369;48.030;11.598;2023-04-24T07:57:26;12.10;99.90
16513;DHT22;8369;48.030;11.598;2023-04-24T07:59:53;12.10;99.90
16513;DHT22;8369;48.030;11.598;2023-04-24T08:02:20;12.10;99.90
16513;DHT22;8369;48.030;11.598;2023-04-24T08:04:53;12.00;99.90
16513;DHT22;8369;48.030;11.598;2023-04-24T08:07:20;11.90;99.90
16513;DHT22;8369;48.030;11.598;2023-04-24T08:09:47;11.90;99.90
16513;DHT22;8369;48.030;11.598;2023-04-24T08:12:15;11.90;99.90
16513;DHT22;8369;48.030;11.598;2023-04-24T08:14:42;11.90;99.90
16513;DHT22;8369;48.030;11.598;2023-04-24T08:17:08;11.90;99.90
16513;DHT22;8369;48.030;11.598;2023-04-24T08:19:35;11.80;99.90
16513;DHT22;8369;48.030;11.598;2023-04-24T08:22:01;11.80;99.90
16513;DHT22;8369;48.030;11.598;2023-04-24T08:24:30;11.70;99.90
16513;DHT22;8369;48.030;11.598;2023-04-24T08:26:57;11.70;99.90
16513;DHT22;8369;48.030;11.598;2023-04-24T08:29:23;11.80;99.90
16513;DHT22;8369;48.030;11.598;2023-04-24T08:31:50;11.80;99.90
16513;DHT22;8369;48.030;11.598;2023-04-24T08:34:17;11.70;99.90
16513;DHT22;8369;48.030;11.598;2023-04-24T08:36:44;11.70;99.90
16513;DHT22;8369;48.030;11.598;2023-04-24T08:39:20;11.70;99.90
16513;DHT22;8369;48.030;11.598;2023-04-24T08:41:48;11.70;99.90
16513;DHT22;8369;48.030;11.598;2023-04-24T08:44:14;11.60;99.90
16513;DHT22;8369;48.030;11.598;2023-04-24T08:46:43;11.80;99.90
16513;DHT22;8369;48.030;11.598;2023-04-24T08:49:14;11.70;99.90
16513;DHT22;8369;48.030;11.598;2023-04-24T08:51:44;11.60;99.90
16513;DHT22;8369;48.030;11.598;2023-04-24T08:54:13;11.40;99.90
16513;DHT22;8369;48.030;11.598;2023-04-24T08:56:40;11.20;99.90
16513;DHT22;8369;48.030;11.598;2023-04-24T08:59:09;11.20;99.90
16513;DHT22;8369;48.030;11.598;2023-04-24T09:01:37;11.20;99.90
16513;DHT22;8369;48.030;11.598;2023-04-24T09:04:07;11.20;99.90
16513;DHT22;8369;48.030;11.598;2023-04-24T09:06:35;11.00;99.90
16513;DHT22;8369;48.030;11.598;2023-04-24T09:09:04;10.80;99.90
16513;DHT22;8369;48.030;11.598;2023-04-24T09:11:31;10.90;99.90
16513;DHT22;8369;48.030;11.598;2023-04-24T09:13:58;11.00;99.90
16513;DHT22;8369;48.030;11.598;2023-04-24T09:16:26;11.00;99.90
16513;DHT22;8369;48.030;11.598;2023-04-24T09:18:52;11.10;99.90
16513;DHT22;8369;48.030;11.598;2023-04-24T09:21:21;11.20;99.90
16513;DHT22;8369;48.030;11.598;2023-04-24T09:24:02;11.10;99.90
16513;DHT22;8369;48.030;11.598;2023-04-24T09:26:30;11.10;99.90
16513;DHT22;8369;48.030;11.598;2023-04-24T09:29:00;11.20;99.90
16513;DHT22;8369;48.030;11.598;2023-04-24T09:31:29;11.20;99.90
16513;DHT22;8369;48.030;11.598;2023-04-24T09:36:35;11.40;99.90
16513;DHT22;8369;48.030;11.598;2023-04-24T09:39:06;11.50;99.90
16513;DHT22;8369;48.030;11.598;2023-04-24T09:41:55;11.60;99.90
16513;DHT22;8369;48.030;11.598;2023-04-24T09:44:26;11.80;99.90
16513;DHT22;8369;48.030;11.598;2023-04-24T09:46:57;11.90;99.90
16513;DHT22;8369;48.030;11.598;2023-04-24T09:49:28;12.10;99.90
16513;DHT22;8369;48.030;11.598;2023-04-24T09:52:08;12.20;99.90
16513;DHT22;8369;48.030;11.598;2023-04-24T09:54:35;12.30;99.90
16513;DHT22;8369;48.030;11.598;2023-04-24T09:57:06;12.40;99.90
16513;DHT22;8369;48.030;11.598;2023-04-24T09:59:33;12.40;99.90
16513;DHT22;8369;48.030;11.598;2023-04-24T10:02:00;12.50;99.90
16513;DHT22;8369;48.030;11.598;2023-04-24T10:04:30;12.60;99.90
16513;DHT22;8369;48.030;11.598;2023-04-24T10:06:57;12.80;99.90
16513;DHT22;8369;48.030;11.598;2023-04-24T10:09:26;12.80;99.90
16513;DHT22;8369;48.030;11.598;2023-04-24T10:11:53;12.70;99.90
16513;DHT22;8369;48.030;11.598;2023-04-24T10:14:22;12.70;99.90
16513;DHT22;8369;48.030;11.598;2023-04-24T10:16:49;12.70;99.90
16513;DHT22;8369;48.030;11.598;2023-04-24T10:19:16;12.80;99.90
16513;DHT22;8369;48.030;11.598;2023-04-24T10:21:45;12.80;99.90
16513;DHT22;8369;48.030;11.598;2023-04-24T10:24:15;12.90;99.90
16513;DHT22;8369;48.030;11.598;2023-04-24T10:26:43;13.10;99.90
16513;DHT22;8369;48.030;11.598;2023-04-24T10:29:13;13.10;99.90
16513;DHT22;8369;48.030;11.598;2023-04-24T10:31:41;13.30;99.90
16513;DHT22;8369;48.030;11.598;2023-04-24T10:34:09;13.20;99.90
16513;DHT22;8369;48.030;11.598;2023-04-24T10:36:38;13.30;99.90
16513;DHT22;8369;48.030;11.598;2023-04-24T10:39:09;13.30;99.90
16513;DHT22;8369;48.030;11.598;2023-04-24T10:41:40;13.30;99.90
16513;DHT22;8369;48.030;11.598;2023-04-24T10:44:14;13.30;99.90
16513;DHT22;8369;48.030;11.598;2023-04-24T10:46:46;13.30;99.90
16513;DHT22;8369;48.030;11.598;2023-04-24T10:49:15;13.30;99.90
16513;DHT22;8369;48.030;11.598;2023-04-24T10:54:46;13.20;99.90
16513;DHT22;8369;48.030;11.598;2023-04-24T11:02:41;12.60;99.90
16513;DHT22;8369;48.030;11.598;2023-04-24T11:05:15;12.30;99.90
16513;DHT22;8369;48.030;11.598;2023-04-24T11:08:13;12.10;99.90
16513;DHT22;8369;48.030;11.598;2023-04-24T11:10:44;11.80;99.90
16513;DHT22;8369;48.030;11.598;2023-04-24T11:13:16;11.70;99.90
16513;DHT22;8369;48.030;11.598;2023-04-24T11:18:52;11.60;99.90
16513;DHT22;8369;48.030;11.598;2023-04-24T11:21:22;11.70;99.90
16513;DHT22;8369;48.030;11.598;2023-04-24T11:23:48;11.80;99.90
16513;DHT22;8369;48.030;11.598;2023-04-24T11:26:19;12.00;99.90
16513;DHT22;8369;48.030;11.598;2023-04-24T11:28:47;12.10;99.90
16513;DHT22;8369;48.030;11.598;2023-04-24T11:31:44;12.30;99.90
16513;DHT22;8369;48.030;11.598;2023-04-24T11:34:16;12.50;99.90
16513;DHT22;8369;48.030;11.598;2023-04-24T11:36:46;12.60;99.90
16513;DHT22;8369;48.030;11.598;2023-04-24T11:39:14;12.60;99.90
16513;DHT22;8369;48.030;11.598;2023-04-24T11:41:41;12.60;99.90
16513;DHT22;8369;48.030;11.598;2023-04-24T11:44:09;12.70;99.90
16513;DHT22;8369;48.030;11.598;2023-04-24T11:46:34;12.90;99.90
16513;DHT22;8369;48.030;11.598;2023-04-24T11:49:03;13.00;99.90
16513;DHT22;8369;48.030;11.598;2023-04-24T11:51:29;13.10;99.90
16513;DHT22;8369;48.030;11.598;2023-04-24T11:53:56;13.30;99.90
16513;DHT22;8369;48.030;11.598;2023-04-24T11:56:23;13.50;99.90
16513;DHT22;8369;48.030;11.598;2023-04-24T11:58:52;13.60;99.90
16513;DHT22;8369;48.030;11.598;2023-04-24T12:01:20;13.60;99.90
16513;DHT22;8369;48.030;11.598;2023-04-24T12:03:50;13.70;99.90
16513;DHT22;8369;48.030;11.598;2023-04-24T12:06:25;13.70;99.90
16513;DHT22;8369;48.030;11.598;2023-04-24T12:08:52;13.60;99.90
16513;DHT22;8369;48.030;11.598;2023-04-24T12:11:20;13.50;99.90
16513;DHT22;8369;48.030;11.598;2023-04-24T12:13:46;13.30;99.90
16513;DHT22;8369;48.030;11.598;2023-04-24T12:16:13;12.90;99.90
16513;DHT22;8369;48.030;11.598;2023-04-24T12:18:43;12.70;99.90
16513;DHT22;8369;48.030;11.598;2023-04-24T12:21:22;12.30;99.90
16513;DHT22;8369;48.030;11.598;2023-04-24T12:23:50;12.10;99.90
16513;DHT22;8369;48.030;11.598;2023-04-24T12:26:20;11.90;99.90
16513;DHT22;8369;48.030;11.598;2023-04-24T12:28:48;11.80;99.90
16513;DHT22;8369;48.030;11.598;2023-04-24T12:31:15;11.60;99.90
16513;DHT22;8369;48.030;11.598;2023-04-24T12:33:42;11.40;99.90
16513;DHT22;8369;48.030;11.598;2023-04-24T12:36:12;11.40;99.90
16513;DHT22;8369;48.030;11.598;2023-04-24T12:38:38;11.30;99.90
16513;DHT22;8369;48.030;11.598;2023-04-24T12:41:11;11.30;99.90
16513;DHT22;8369;48.030;11.598;2023-04-24T12:43:37;11.40;99.90
16513;DHT22;8369;48.030;11.598;2023-04-24T12:46:19;11.50;99.90
16513;DHT22;8369;48.030;11.598;2023-04-24T12:48:44;11.60;99.90
16513;DHT22;8369;48.030;11.598;2023-04-24T12:51:10;11.50;99.90
16513;DHT22;8369;48.030;11.598;2023-04-24T12:53:36;11.40;99.90
16513;DHT22;8369;48.030;11.598;2023-04-24T12:56:02;11.30;99.90
16513;DHT22;8369;48.030;11.598;2023-04-24T12:58:28;11.20;99.90
16513;DHT22;8369;48.030;11.598;2023-04-24T13:00:54;11.10;99.90
16513;DHT22;8369;48.030;11.598;2023-04-24T13:03:20;11.10;99.90
16513;DHT22;8369;48.030;11.598;2023-04-24T13:05:48;11.10;99.90
16513;DHT22;8369;48.030;11.598;2023-04-24T13:08:13;11.10;99.90
16513;DHT22;8369;48.030;11.598;2023-04-24T13:10:39;11.20;99.90
16513;DHT22;8369;48.030;11.598;2023-04-24T13:13:06;11.20;99.90
16513;DHT22;8369;48.030;11.598;2023-04-24T13:15:32;11.30;99.90
16513;DHT22;8369;48.030;11.598;2023-04-24T13:17:57;11.40;99.90
16513;DHT22;8369;48.030;11.598;2023-04-24T13:20:23;11.50;99.90
16513;DHT22;8369;48.030;11.598;2023-04-24T13:22:49;11.60;99.90
16513;DHT22;8369;48.030;11.598;2023-04-24T13:25:15;11.70;99.90
16513;DHT22;8369;48.030;11.598;2023-04-24T13:27:42;11.80;99.90
16513;DHT22;8369;48.030;11.598;2023-04-24T13:30:08;12.00;99.90
16513;DHT22;8369;48.030;11.598;2023-04-24T13:32:35;12.20;99.90
16513;DHT22;8369;48.030;11.598;2023-04-24T13:35:01;12.40;99.90
16513;DHT22;8369;48.030;11.598;2023-04-24T13:37:27;12.50;99.90
16513;DHT22;8369;48.030;11.598;2023-04-24T13:39:53;12.70;99.90
16513;DHT22;8369;48.030;11.598;2023-04-24T13:42:19;12.80;99.90
16513;DHT22;8369;48.030;11.598;2023-04-24T13:44:46;12.90;99.90
16513;DHT22;8369;48.030;11.598;2023-04-24T13:47:12;13.00;99.90
16513;DHT22;8369;48.030;11.598;2023-04-24T13:49:37;12.90;99.90
16513;DHT22;8369;48.030;11.598;2023-04-24T13:52:03;12.60;99.90
16513;DHT22;8369;48.030;11.598;2023-04-24T13:54:29;12.40;99.90
16513;DHT22;8369;48.030;11.598;2023-04-24T13:56:57;12.20;99.90
16513;DHT22;8369;48.030;11.598;2023-04-24T13:59:23;12.00;99.90
16513;DHT22;8369;48.030;11.598;2023-04-24T14:01:49;11.90;99.90
16513;DHT22;8369;48.030;11.598;2023-04-24T14:04:15;11.90;99.90
16513;DHT22;8369;48.030;11.598;2023-04-24T14:06:41;12.00;99.90
16513;DHT22;8369;48.030;11.598;2023-04-24T14:09:07;12.20;99.90
16513;DHT22;8369;48.030;11.598;2023-04-24T14:11:33;12.40;99.90
16513;DHT22;8369;48.030;11.598;2023-04-24T14:14:00;12.50;99.90
16513;DHT22;8369;48.030;11.598;2023-04-24T14:16:26;12.70;99.90
16513;DHT22;8369;48.030;11.598;2023-04-24T14:18:54;12.60;99.90
16513;DHT22;8369;48.030;11.598;2023-04-24T14:21:20;12.70;99.90
16513;DHT22;8369;48.030;11.598;2023-04-24T14:23:47;12.70;99.90
16513;DHT22;8369;48.030;11.598;2023-04-24T14:26:13;12.80;99.90
16513;DHT22;8369;48.030;11.598;2023-04-24T14:28:39;12.70;99.90
16513;DHT22;8369;48.030;11.598;2023-04-24T14:31:06;12.70;99.90
16513;DHT22;8369;48.030;11.598;2023-04-24T14:33:33;12.70;99.90
16513;DHT22;8369;48.030;11.598;2023-04-24T14:35:59;12.70;99.90
16513;DHT22;8369;48.030;11.598;2023-04-24T14:38:28;12.70;99.90
16513;DHT22;8369;48.030;11.598;2023-04-24T14:40:56;12.80;99.90
16513;DHT22;8369;48.030;11.598;2023-04-24T14:43:23;12.90;99.90
16513;DHT22;8369;48.030;11.598;2023-04-24T14:45:49;12.90;99.90
16513;DHT22;8369;48.030;11.598;2023-04-24T14:48:16;13.00;99.90
16513;DHT22;8369;48.030;11.598;2023-04-24T14:50:43;12.90;99.90
16513;DHT22;8369;48.030;11.598;2023-04-24T14:53:11;12.90;99.90
16513;DHT22;8369;48.030;11.598;2023-04-24T14:55:38;12.90;99.90
16513;DHT22;8369;48.030;11.598;2023-04-24T14:58:04;12.90;99.90
16513;DHT22;8369;48.030;11.598;2023-04-24T15:00:31;12.90;99.90
16513;DHT22;8369;48.030;11.598;2023-04-24T15:02:57;13.00;99.90
16513;DHT22;8369;48.030;11.598;2023-04-24T15:05:23;13.10;99.60
16513;DHT22;8369;48.030;11.598;2023-04-24T15:07:50;13.20;99.90
16513;DHT22;8369;48.030;11.598;2023-04-24T15:10:16;13.20;99.00
16513;DHT22;8369;48.030;11.598;2023-04-24T15:12:43;13.20;98.70
16513;DHT22;8369;48.030;11.598;2023-04-24T15:15:10;13.30;97.60
16513;DHT22;8369;48.030;11.598;2023-04-24T15:17:36;13.30;99.10
16513;DHT22;8369;48.030;11.598;2023-04-24T15:20:02;13.30;99.50
16513;DHT22;8369;48.030;11.598;2023-04-24T15:22:29;13.40;99.60
16513;DHT22;8369;48.030;11.598;2023-04-24T15:24:56;13.50;96.60
16513;DHT22;8369;48.030;11.598;2023-04-24T15:27:23;13.60;95.50
16513;DHT22;8369;48.030;11.598;2023-04-24T15:29:50;13.70;93.80
16513;DHT22;8369;48.030;11.598;2023-04-24T15:32:16;13.50;94.50
16513;DHT22;8369;48.030;11.598;2023-04-24T15:34:43;13.40;96.20
16513;DHT22;8369;48.030;11.598;2023-04-24T15:37:09;13.40;97.20
16513;DHT22;8369;48.030;11.598;2023-04-24T15:39:35;13.40;95.80
16513;DHT22;8369;48.030;11.598;2023-04-24T15:42:03;13.40;96.50
16513;DHT22;8369;48.030;11.598;2023-04-24T15:44:30;13.40;96.80
16513;DHT22;8369;48.030;11.598;2023-04-24T15:46:56;13.30;97.30
16513;DHT22;8369;48.030;11.598;2023-04-24T15:49:25;13.30;97.70
16513;DHT22;8369;48.030;11.598;2023-04-24T15:51:52;13.40;98.00
16513;DHT22;8369;48.030;11.598;2023-04-24T15:54:19;13.50;94.20